createdAt,value
2023-01-30T00:04:16.824Z,100495.00
2023-01-30T00:06:43.888Z,100487.34
2023-01-30T00:09:14.973Z,100491.88
2023-01-30T00:11:42.509Z,100496.94
2023-01-30T00:14:09.208Z,100489.75
2023-01-30T00:47:48.688Z,100463.66
2023-01-30T00:50:15.549Z,100470.59
2023-01-30T00:52:42.110Z,100465.34
2023-01-30T00:55:09.110Z,100468.28
2023-01-30T00:57:36.864Z,100470.75
2023-01-30T01:00:05.462Z,100462.16
2023-01-30T01:02:32.065Z,100463.63
2023-01-30T01:04:58.608Z,100464.50
2023-01-30T01:07:25.161Z,100461.63
2023-01-30T01:09:51.703Z,100456.25
2023-01-30T01:12:18.271Z,100450.22
2023-01-30T01:14:44.865Z,100450.78
2023-01-30T01:17:21.014Z,100445.25
2023-01-30T01:19:47.577Z,100436.16
2023-01-30T01:22:14.161Z,100433.81
2023-01-30T01:24:40.695Z,100436.72
2023-01-30T01:27:35.532Z,100433.59
2023-01-30T01:30:15.259Z,100427.50
2023-01-30T01:47:09.513Z,100420.00
2023-01-30T01:49:37.467Z,100408.62
2023-01-30T01:52:06.711Z,100413.78
2023-01-30T01:54:45.504Z,100407.59
2023-01-30T01:57:43.140Z,100399.53
2023-01-30T02:17:51.712Z,100362.28
2023-01-30T02:20:32.270Z,100362.28
2023-01-30T02:22:58.759Z,100355.41
2023-01-30T02:25:45.447Z,100352.44
2023-01-30T02:29:15.024Z,100341.41
2023-01-30T02:32:25.702Z,100338.94
2023-01-30T02:35:04.334Z,100343.78
2023-01-30T02:37:42.666Z,100335.97
2023-01-30T02:40:44.078Z,100334.53
2023-01-30T02:43:27.607Z,100331.50
2023-01-30T03:00:33.291Z,100295.84
2023-01-30T03:03:08.498Z,100288.91
2023-01-30T03:05:55.861Z,100288.97
2023-01-30T03:08:51.529Z,100283.00
2023-01-30T03:11:18.402Z,100299.91
2023-01-30T03:13:53.813Z,100296.41
2023-01-30T03:16:40.545Z,100295.09
2023-01-30T03:19:12.558Z,100291.66
2023-01-30T03:21:44.698Z,100293.50
2023-01-30T03:24:12.824Z,100289.62
2023-01-30T03:27:22.413Z,100286.28
2023-01-30T03:30:09.110Z,100287.47
2023-01-30T03:32:35.692Z,100283.03
2023-01-30T03:35:04.651Z,100280.56
2023-01-30T03:37:31.525Z,100283.19
2023-01-30T03:39:58.955Z,100270.66
2023-01-30T03:42:25.629Z,100271.22
2023-01-30T04:17:01.615Z,100237.44
2023-01-30T04:19:28.242Z,100233.50
2023-01-30T04:21:54.854Z,100231.72
2023-01-30T04:24:21.397Z,100222.97
2023-01-30T04:26:48.004Z,100230.03
2023-01-30T04:29:14.619Z,100237.63
2023-01-30T04:55:08.986Z,100191.28
2023-01-30T04:57:35.656Z,100195.63
2023-01-30T05:00:02.242Z,100199.13
2023-01-30T05:02:28.789Z,100202.16
2023-01-30T05:27:40.609Z,100180.38
2023-01-30T05:30:08.047Z,100184.28
2023-01-30T05:32:37.030Z,100170.06
2023-01-30T05:35:03.793Z,100166.72
2023-01-30T05:37:30.439Z,100173.13
2023-01-30T06:57:01.676Z,100155.19
2023-01-30T06:59:28.353Z,100163.78
2023-01-30T07:01:55.034Z,100162.66
2023-01-30T07:04:21.801Z,100157.81
2023-01-30T07:06:48.604Z,100159.31
2023-01-30T07:09:15.328Z,100153.16
2023-01-30T07:11:41.911Z,100145.97
2023-01-30T07:14:10.004Z,100150.72
2023-01-30T07:16:37.300Z,100139.56
2023-01-30T07:19:03.865Z,100151.75
2023-01-30T07:21:30.432Z,100149.37
2023-01-30T07:23:57.798Z,100158.75
2023-01-30T07:26:25.665Z,100154.75
2023-01-30T07:28:52.313Z,100165.13
2023-01-30T07:31:19.012Z,100153.25
2023-01-30T07:33:45.648Z,100153.69
2023-01-30T07:36:12.222Z,100142.56
2023-01-30T07:38:38.963Z,100144.47
2023-01-30T07:41:05.735Z,100143.47
2023-01-30T07:43:32.342Z,100140.31
2023-01-30T07:46:00.522Z,100133.38
2023-01-30T07:48:27.065Z,100139.59
2023-01-30T07:50:56.807Z,100138.53
2023-01-30T07:53:23.428Z,100130.69
2023-01-30T07:55:50.031Z,100132.13
2023-01-30T07:58:16.936Z,100117.03
2023-01-30T08:00:44.558Z,100124.44
2023-01-30T08:03:15.917Z,100119.56
2023-01-30T08:05:44.232Z,100124.38
2023-01-30T08:08:11.044Z,100121.87
2023-01-30T08:10:37.623Z,100118.31
2023-01-30T08:13:04.361Z,100119.69
2023-01-30T08:15:32.928Z,100115.00
2023-01-30T08:17:59.920Z,100104.13
2023-01-30T08:20:27.760Z,100093.66
2023-01-30T08:22:55.310Z,100082.44
2023-01-30T08:25:23.011Z,100069.62
2023-01-30T08:27:49.717Z,100053.87
2023-01-30T08:30:16.968Z,100052.84
2023-01-30T08:32:48.745Z,100064.44
2023-01-30T08:35:15.531Z,100055.22
2023-01-30T08:37:42.708Z,100063.22
2023-01-30T08:40:10.662Z,100059.59
2023-01-30T09:45:06.917Z,99998.31
2023-01-30T09:48:02.629Z,100002.31
2023-01-30T09:50:51.702Z,99997.66
2023-01-30T09:53:39.222Z,99995.63
2023-01-30T09:56:05.971Z,99986.25
2023-01-30T09:58:44.564Z,99976.41
2023-01-30T10:01:23.480Z,99977.94
2023-01-30T10:04:03.758Z,99978.28
2023-01-30T10:06:36.033Z,99977.75
2023-01-30T10:09:13.492Z,99967.22
2023-01-30T10:11:47.852Z,99964.09
2023-01-30T10:14:53.549Z,99963.97
2023-01-30T10:17:38.309Z,99946.03
2023-01-30T10:20:32.793Z,99946.06
2023-01-30T10:23:48.886Z,99944.00
2023-01-30T10:26:20.022Z,99932.87
2023-01-30T10:29:06.719Z,99931.72
2023-01-30T10:31:47.558Z,99920.16
2023-01-30T10:34:25.700Z,99924.72
2023-01-30T10:37:04.291Z,99919.28
2023-01-30T10:39:55.900Z,99916.34
2023-01-30T10:42:48.504Z,99904.50
2023-01-30T10:45:23.217Z,99897.66
2023-01-30T10:47:59.712Z,99895.53
2023-01-30T10:50:40.519Z,99894.78
2023-01-30T10:53:35.948Z,99869.81
2023-01-30T10:56:22.627Z,99874.38
2023-01-30T10:58:58.919Z,99869.63
2023-01-30T11:01:44.237Z,99852.00
2023-01-30T11:04:31.068Z,99839.13
2023-01-30T11:07:00.764Z,99845.28
2023-01-30T11:09:53.648Z,99839.22
2023-01-30T11:12:20.220Z,99831.81
2023-01-30T11:15:05.438Z,99828.59
2023-01-30T11:17:39.784Z,99825.03
2023-01-30T11:20:19.253Z,99813.25
2023-01-30T11:23:07.469Z,99811.72
2023-01-30T11:25:52.827Z,99799.84
2023-01-30T11:28:27.093Z,99795.06
2023-01-30T11:30:59.960Z,99781.44
2023-01-30T11:33:36.430Z,99783.94
2023-01-30T11:36:06.976Z,99775.06
2023-01-30T11:38:40.333Z,99769.56
2023-01-30T11:41:09.921Z,99767.03
2023-01-30T11:43:39.840Z,99763.56
2023-01-30T11:46:08.964Z,99753.50
2023-01-30T11:49:02.372Z,99744.78
2023-01-30T11:51:37.534Z,99740.16
2023-01-30T11:54:06.122Z,99743.47
2023-01-30T11:56:36.141Z,99729.22
2023-01-30T11:59:06.590Z,99734.75
2023-01-30T12:01:37.169Z,99726.25
2023-01-30T12:04:08.625Z,99731.84
2023-01-30T12:06:37.617Z,99733.16
2023-01-30T12:09:05.248Z,99724.38
2023-01-30T12:11:40.245Z,99722.97
2023-01-30T12:14:24.210Z,99724.03
2023-01-30T12:17:09.653Z,99722.06
2023-01-30T12:19:45.422Z,99727.47
2023-01-30T12:22:30.882Z,99719.03
2023-01-30T12:25:01.246Z,99711.34
2023-01-30T12:27:55.283Z,99695.28
2023-01-30T12:30:32.343Z,99684.09
2023-01-30T12:36:01.591Z,99670.69
2023-01-30T12:38:41.600Z,99659.84
2023-01-30T12:41:08.101Z,99635.87
2023-01-30T12:43:49.928Z,99631.94
2023-01-30T12:46:19.336Z,99628.13
2023-01-30T12:49:02.470Z,99630.91
2023-01-30T12:51:52.898Z,99634.38
2023-01-30T12:54:28.264Z,99634.97
2023-01-30T12:57:02.485Z,99657.72
2023-01-30T12:59:50.541Z,99647.59
2023-01-30T13:02:51.674Z,99642.91
2023-01-30T13:05:22.403Z,99629.38
2023-01-30T13:08:03.155Z,99631.69
2023-01-30T13:10:54.302Z,99627.81
2023-01-30T13:13:23.799Z,99605.31
2023-01-30T13:15:53.380Z,99596.03
2023-01-30T13:18:43.062Z,99596.91
2023-01-30T13:21:21.193Z,99608.38
2023-01-30T13:24:22.239Z,99595.84
2023-01-30T13:26:51.012Z,99598.88
2023-01-30T13:29:33.008Z,99596.34
2023-01-30T13:32:03.610Z,99580.84
2023-01-30T13:34:40.955Z,99606.50
2023-01-30T13:37:12.419Z,99591.84
2023-01-30T13:39:57.093Z,99587.09
2023-01-30T13:42:38.766Z,99601.97
2023-01-30T13:45:07.070Z,99590.22
2023-01-30T13:47:52.873Z,99591.59
2023-01-30T13:50:35.907Z,99592.59
2023-01-30T13:53:22.757Z,99596.56
2023-01-30T14:15:42.420Z,99561.03
2023-01-30T14:18:33.888Z,99563.75
2023-01-30T14:21:20.434Z,99576.00
2023-01-30T14:24:03.191Z,99567.28
2023-01-30T14:26:48.247Z,99571.38
2023-01-30T14:29:40.963Z,99564.31
2023-01-30T14:32:19.021Z,99575.31
2023-01-30T14:34:48.042Z,99568.59
2023-01-30T14:37:39.385Z,99577.38
2023-01-30T14:40:21.163Z,99577.38
2023-01-30T14:43:12.657Z,99581.81
2023-01-30T14:45:49.247Z,99576.34
2023-01-30T14:48:40.277Z,99581.37
2023-01-30T14:51:39.791Z,99573.66
2023-01-30T14:54:12.930Z,99578.25
2023-01-30T14:57:00.277Z,99573.03
2023-01-30T14:59:31.829Z,99572.19
2023-01-30T15:02:21.796Z,99567.69
2023-01-30T15:05:21.429Z,99570.66
2023-01-30T15:08:04.664Z,99568.13
2023-01-30T15:10:46.297Z,99577.38
2023-01-30T15:13:40.969Z,99580.78
2023-01-30T15:16:37.916Z,99581.47
2023-01-30T15:19:29.285Z,99585.97
2023-01-30T15:22:16.012Z,99581.37
2023-01-30T15:25:26.303Z,99578.59
2023-01-30T15:28:32.972Z,99579.16
2023-01-30T15:31:18.000Z,99584.31
2023-01-30T15:33:47.397Z,99591.84
2023-01-30T15:36:26.875Z,99594.88
2023-01-30T15:39:23.890Z,99589.31
2023-01-30T15:41:52.746Z,99582.34
2023-01-30T15:44:48.581Z,99586.28
2023-01-30T15:47:29.056Z,99595.38
2023-01-30T15:50:01.511Z,99603.31
2023-01-30T15:52:50.612Z,99609.78
2023-01-30T15:55:25.615Z,99607.50
2023-01-30T15:57:59.421Z,99613.56
2023-01-30T16:00:26.498Z,99608.78
2023-01-30T16:02:54.284Z,99611.34
2023-01-30T16:05:25.346Z,99614.03
2023-01-30T16:07:53.959Z,99611.19
2023-01-30T16:10:22.202Z,99608.47
2023-01-30T16:12:50.768Z,99613.69
2023-01-30T16:15:25.831Z,99620.00
2023-01-30T16:18:21.663Z,99617.22
2023-01-30T16:21:01.481Z,99603.22
2023-01-30T16:23:38.760Z,99603.88
2023-01-30T16:26:14.282Z,99600.09
2023-01-30T16:28:41.062Z,99596.75
2023-01-30T16:31:10.885Z,99608.47
2023-01-30T16:33:38.247Z,99613.13
2023-01-30T16:36:25.095Z,99612.63
2023-01-30T16:38:53.993Z,99620.66
2023-01-30T16:41:53.823Z,99616.16
2023-01-30T16:44:25.420Z,99618.09
2023-01-30T16:47:01.035Z,99626.22
2023-01-30T16:49:30.553Z,99616.88
2023-01-30T16:52:18.574Z,99631.06
2023-01-30T16:55:06.882Z,99629.34
2023-01-30T16:57:50.433Z,99622.34
2023-01-30T17:00:24.709Z,99619.03
2023-01-30T17:03:20.456Z,99629.91
2023-01-30T17:05:49.425Z,99622.69
2023-01-30T17:08:31.410Z,99613.31
2023-01-30T17:10:59.474Z,99622.06
2023-01-30T17:13:41.763Z,99622.81
2023-01-30T17:16:23.741Z,99614.38
2023-01-30T17:18:52.349Z,99620.66
2023-01-30T17:21:20.796Z,99619.03
2023-01-30T17:23:59.977Z,99624.00
2023-01-30T17:26:27.003Z,99613.31
2023-01-30T17:28:53.746Z,99608.19
2023-01-30T17:31:21.145Z,99603.00
2023-01-30T17:33:48.200Z,99608.66
2023-01-30T17:36:24.072Z,99611.50
2023-01-30T17:38:51.469Z,99620.25
2023-01-30T17:41:27.073Z,99612.09
2023-01-30T17:43:53.744Z,99609.12
2023-01-30T17:46:24.104Z,99607.50
2023-01-30T17:48:51.795Z,99606.69
2023-01-30T17:51:18.447Z,99595.59
2023-01-30T17:53:45.221Z,99601.88
2023-01-30T17:56:39.291Z,99600.53
2023-01-30T17:59:16.455Z,99601.97
2023-01-30T18:01:45.207Z,99601.28
2023-01-30T18:04:11.886Z,99612.69
2023-01-30T18:06:41.178Z,99612.72
2023-01-30T18:09:07.996Z,99620.28
2023-01-30T18:11:34.584Z,99614.59
2023-01-30T18:14:01.137Z,99608.44
2023-01-30T18:16:33.076Z,99603.78
2023-01-30T18:19:05.572Z,99613.37
2023-01-30T18:21:34.060Z,99615.47
2023-01-30T18:24:01.115Z,99620.19
2023-01-30T18:26:30.100Z,99613.63
2023-01-30T18:28:57.218Z,99602.97
2023-01-30T18:31:25.361Z,99602.81
2023-01-30T18:33:52.638Z,99599.06
2023-01-30T18:36:21.143Z,99594.97
2023-01-30T18:38:48.589Z,99606.31
2023-01-30T18:41:18.020Z,99618.66
2023-01-30T18:43:48.083Z,99634.03
2023-01-30T18:46:17.431Z,99626.03
2023-01-30T18:48:45.210Z,99637.13
2023-01-30T18:51:14.684Z,99631.44
2023-01-30T18:53:42.651Z,99623.16
2023-01-30T18:56:14.703Z,99626.47
2023-01-30T18:58:41.516Z,99624.25
2023-01-30T19:01:16.197Z,99628.37
2023-01-30T19:03:43.431Z,99617.97
2023-01-30T19:06:13.072Z,99619.09
2023-01-30T19:08:40.976Z,99616.50
2023-01-30T19:11:29.427Z,99615.22
2023-01-30T19:13:56.892Z,99613.69
2023-01-30T19:16:25.487Z,99615.28
2023-01-30T19:18:53.553Z,99613.59
2023-01-30T19:21:20.758Z,99612.66
2023-01-30T19:23:49.136Z,99607.19
2023-01-30T19:26:17.134Z,99625.31
2023-01-30T19:28:44.803Z,99624.09
2023-01-30T19:31:16.155Z,99624.72
2023-01-30T19:33:44.395Z,99626.34
2023-01-30T19:36:16.880Z,99624.88
2023-01-30T19:38:46.226Z,99627.63
2023-01-30T19:41:30.671Z,99627.56
2023-01-30T19:43:59.352Z,99637.75
2023-01-30T19:46:26.807Z,99631.94
2023-01-30T19:48:53.455Z,99641.47
2023-01-30T19:51:21.208Z,99635.19
2023-01-30T19:54:09.638Z,99630.66
2023-01-30T19:56:39.220Z,99642.00
2023-01-30T19:59:05.922Z,99641.19
2023-01-30T20:01:36.961Z,99639.84
2023-01-30T20:04:07.010Z,99630.63
2023-01-30T20:06:35.200Z,99632.63
2023-01-30T20:09:05.289Z,99627.00
2023-01-30T20:11:34.524Z,99615.22
2023-01-30T20:14:02.046Z,99610.66
2023-01-30T20:16:31.284Z,99613.13
2023-01-30T20:19:00.418Z,99607.97
2023-01-30T20:21:29.029Z,99613.72
2023-01-30T20:23:56.507Z,99610.50
2023-01-30T20:26:31.068Z,99605.28
2023-01-30T20:28:58.533Z,99606.59
2023-01-30T20:31:27.463Z,99595.50
2023-01-30T20:33:57.422Z,99599.94
2023-01-30T20:36:26.711Z,99604.59
2023-01-30T20:38:55.674Z,99612.69
2023-01-30T20:41:24.913Z,99609.00
2023-01-30T20:43:59.584Z,99609.50
2023-01-30T20:46:28.510Z,99598.41
2023-01-30T20:48:57.302Z,99597.47
2023-01-30T20:51:29.390Z,99589.22
2023-01-30T20:53:59.920Z,99588.97
2023-01-30T20:56:31.666Z,99578.56
2023-01-30T20:58:58.361Z,99579.31
2023-01-30T21:01:24.961Z,99582.34
2023-01-30T21:03:53.372Z,99579.06
2023-01-30T21:06:37.097Z,99585.06
2023-01-30T21:09:12.659Z,99595.13
2023-01-30T21:11:40.324Z,99586.22
2023-01-30T21:14:07.523Z,99582.94
2023-01-30T21:16:35.883Z,99586.12
2023-01-30T21:19:06.019Z,99578.81
2023-01-30T21:21:42.838Z,99587.25
2023-01-30T21:24:13.389Z,99583.75
2023-01-30T21:26:45.935Z,99588.75
2023-01-30T21:58:46.859Z,99612.13
2023-01-30T22:29:39.763Z,99614.78
2023-01-30T22:32:06.335Z,99609.16
2023-01-30T22:34:35.783Z,99612.22
2023-01-30T22:37:02.550Z,99608.16
2023-01-30T22:40:00.287Z,99603.91
2023-01-30T22:42:48.516Z,99600.53
2023-01-30T22:45:15.144Z,99595.09
2023-01-30T22:47:42.149Z,99593.47
2023-01-30T22:50:09.325Z,99590.25
2023-01-30T22:52:35.898Z,99587.03
2023-01-30T22:55:02.548Z,99585.41
2023-01-30T22:57:47.019Z,99578.44
2023-01-30T23:00:13.946Z,99576.09
2023-01-30T23:02:40.830Z,99582.94
2023-01-30T23:05:07.841Z,99577.50
2023-01-30T23:07:53.128Z,99584.16
2023-01-30T23:10:41.651Z,99585.31
2023-01-30T23:13:20.678Z,99575.81
2023-01-30T23:15:48.269Z,99562.31
2023-01-30T23:18:33.963Z,99563.06
2023-01-30T23:21:00.987Z,99552.56
2023-01-30T23:23:27.840Z,99559.72
2023-01-30T23:25:54.455Z,99550.84
2023-01-30T23:28:21.026Z,99559.19
2023-01-30T23:30:47.638Z,99547.75
2023-01-30T23:33:15.264Z,99551.13
2023-01-30T23:35:41.824Z,99525.31
2023-01-30T23:38:18.993Z,99559.75
2023-01-30T23:40:47.088Z,99559.69
2023-01-30T23:43:15.376Z,99557.94
2023-01-30T23:45:42.256Z,99556.63
2023-01-30T23:48:09.332Z,99560.63
2023-01-30T23:50:38.724Z,99565.00
2023-01-30T23:53:07.237Z,99559.50
2023-01-30T23:55:33.805Z,99558.25
2023-01-30T23:58:06.507Z,99560.06
